SIA211 WSSS-YSSY
Flight info
| Callsign | SIA211 |
|---|---|
| Flight time | 1h 57m |
| Altitude | 33000 |
| Route | IDBUD1A IDBUD T24 SURGA M635 ATMAP A576 CIN/N0494F350 A576 APOMA Y52 VELGI Y105 TARAL Y59 RIVET |
| Aircraft | B77W/H-SDE1E2E3FGHIJ2J3J4J5M1RWXY/LB1D1 |
Departure
| Time | 2026-04-25 06:54 |
|---|---|
| Airport | Singapore Changi Airport (WSSS) |
Arrival
| Time | 2026-04-25 08:52 |
|---|---|
| Airport | Sydney Kingsford Smith International Airport (YSSY) |
| Time | Latitude | Longitude | Altitude | Speed | Heading |
|---|---|---|---|---|---|
| 2026-04-25 06:12 | 1.36049 | 103.98714 | 35 ft | 0 kts | 114° |
| 2026-04-25 06:44 | 1.36050 | 103.98712 | 35 ft | 2 kts | 114° |
| 2026-04-25 06:44 | 1.36057 | 103.98697 | 35 ft | 2 kts | 116° |
| 2026-04-25 06:44 | 1.36065 | 103.98682 | 35 ft | 2 kts | 120° |
| 2026-04-25 06:44 | 1.36073 | 103.98668 | 32 ft | 2 kts | 126° |
| 2026-04-25 06:45 | 1.36084 | 103.98655 | 31 ft | 2 kts | 142° |
| 2026-04-25 06:45 | 1.36099 | 103.98648 | 34 ft | 2 kts | 180° |
| 2026-04-25 06:45 | 1.36112 | 103.98650 | 34 ft | 1 kts | 202° |
| 2026-04-25 06:45 | 1.36114 | 103.98651 | 33 ft | 0 kts | 203° |
| 2026-04-25 06:48 | 1.36110 | 103.98649 | 34 ft | 3 kts | 203° |
| 2026-04-25 06:49 | 1.36091 | 103.98636 | 32 ft | 4 kts | 223° |
| 2026-04-25 06:49 | 1.36078 | 103.98614 | 35 ft | 4 kts | 251° |
| 2026-04-25 06:49 | 1.36081 | 103.98577 | 35 ft | 9 kts | 286° |
| 2026-04-25 06:49 | 1.36108 | 103.98497 | 35 ft | 13 kts | 279° |
| 2026-04-25 06:50 | 1.36055 | 103.98430 | 35 ft | 13 kts | 205° |
| 2026-04-25 06:50 | 1.35969 | 103.98393 | 35 ft | 14 kts | 204° |
| 2026-04-25 06:50 | 1.35874 | 103.98354 | 35 ft | 16 kts | 202° |
| 2026-04-25 06:50 | 1.35768 | 103.98309 | 35 ft | 19 kts | 202° |
| 2026-04-25 06:51 | 1.35618 | 103.98246 | 35 ft | 27 kts | 202° |
| 2026-04-25 06:51 | 1.35448 | 103.98174 | 35 ft | 27 kts | 203° |
| 2026-04-25 06:51 | 1.35277 | 103.98102 | 35 ft | 27 kts | 203° |
| 2026-04-25 06:51 | 1.35107 | 103.98031 | 35 ft | 27 kts | 202° |
| 2026-04-25 06:52 | 1.34936 | 103.97959 | 35 ft | 26 kts | 203° |
| 2026-04-25 06:52 | 1.34866 | 103.97929 | 35 ft | 6 kts | 206° |
| 2026-04-25 06:52 | 1.34854 | 103.97891 | 35 ft | 7 kts | 277° |
| 2026-04-25 06:52 | 1.34872 | 103.97836 | 35 ft | 11 kts | 289° |
| 2026-04-25 06:53 | 1.34902 | 103.97764 | 35 ft | 11 kts | 314° |
| 2026-04-25 06:53 | 1.34981 | 103.97775 | 35 ft | 18 kts | 24° |
| 2026-04-25 06:53 | 1.35201 | 103.97872 | 35 ft | 61 kts | 23° |
| 2026-04-25 06:53 | 1.35827 | 103.98134 | 35 ft | 132 kts | 22° |
| 2026-04-25 06:54 | 1.36872 | 103.98568 | 38 ft | 190 kts | 23° |
| 2026-04-25 06:54 | 1.38115 | 103.99102 | 554 ft | 196 kts | 24° |
| 2026-04-25 06:54 | 1.39354 | 103.99638 | 1286 ft | 191 kts | 25° |
| 2026-04-25 06:54 | 1.40604 | 104.00171 | 1776 ft | 202 kts | 24° |
| 2026-04-25 06:55 | 1.41945 | 104.00743 | 2029 ft | 218 kts | 24° |
| 2026-04-25 06:55 | 1.43401 | 104.01348 | 2316 ft | 234 kts | 22° |
| 2026-04-25 06:55 | 1.44941 | 104.01996 | 2872 ft | 240 kts | 23° |
| 2026-04-25 06:55 | 1.46501 | 104.02660 | 3412 ft | 249 kts | 26° |
| 2026-04-25 06:56 | 1.47854 | 104.03730 | 3755 ft | 260 kts | 56° |
| 2026-04-25 06:56 | 1.48501 | 104.05426 | 4348 ft | 265 kts | 83° |
| 2026-04-25 06:56 | 1.48378 | 104.07261 | 5054 ft | 269 kts | 105° |
| 2026-04-25 06:56 | 1.47665 | 104.09003 | 5617 ft | 274 kts | 113° |
| 2026-04-25 06:57 | 1.46836 | 104.10721 | 6304 ft | 274 kts | 114° |
| 2026-04-25 06:57 | 1.46006 | 104.12445 | 6955 ft | 276 kts | 114° |
| 2026-04-25 06:57 | 1.45179 | 104.14190 | 7579 ft | 280 kts | 113° |
| 2026-04-25 06:57 | 1.44265 | 104.15905 | 8130 ft | 282 kts | 128° |
| 2026-04-25 06:58 | 1.42703 | 104.17120 | 8570 ft | 289 kts | 150° |
| 2026-04-25 06:58 | 1.40898 | 104.18050 | 9127 ft | 294 kts | 151° |
| 2026-04-25 06:58 | 1.39076 | 104.18980 | 9805 ft | 295 kts | 150° |
| 2026-04-25 06:58 | 1.37270 | 104.19912 | 10365 ft | 299 kts | 150° |
| 2026-04-25 06:59 | 1.35370 | 104.20908 | 10566 ft | 320 kts | 150° |
| 2026-04-25 06:59 | 1.33347 | 104.21984 | 10718 ft | 340 kts | 150° |
| 2026-04-25 06:59 | 1.31203 | 104.23135 | 10885 ft | 360 kts | 150° |
| 2026-04-25 06:59 | 1.28943 | 104.24356 | 11130 ft | 376 kts | 150° |
| 2026-04-25 07:00 | 1.26612 | 104.25619 | 11596 ft | 385 kts | 149° |
| 2026-04-25 07:00 | 1.24237 | 104.26910 | 12192 ft | 391 kts | 149° |
| 2026-04-25 07:00 | 1.21840 | 104.28215 | 12890 ft | 394 kts | 149° |
| 2026-04-25 07:00 | 1.19425 | 104.29532 | 13551 ft | 397 kts | 149° |
| 2026-04-25 07:01 | 1.16989 | 104.30861 | 14134 ft | 401 kts | 149° |
| 2026-04-25 07:01 | 1.14528 | 104.32205 | 14726 ft | 404 kts | 149° |
| 2026-04-25 07:01 | 1.12087 | 104.33538 | 15311 ft | 407 kts | 149° |
| 2026-04-25 07:01 | 1.10918 | 104.34175 | 15579 ft | 408 kts | 149° |
| 2026-04-25 07:02 | 1.08544 | 104.35472 | 16116 ft | 412 kts | 149° |
| 2026-04-25 07:02 | 1.06031 | 104.36872 | 16674 ft | 415 kts | 146° |
| 2026-04-25 07:02 | 1.03671 | 104.38534 | 17214 ft | 416 kts | 139° |
| 2026-04-25 07:02 | 1.01427 | 104.40372 | 17754 ft | 419 kts | 138° |
| 2026-04-25 07:03 | 0.99173 | 104.42239 | 18254 ft | 422 kts | 138° |
| 2026-04-25 07:03 | 0.96902 | 104.44118 | 18699 ft | 426 kts | 138° |
| 2026-04-25 07:03 | 0.94611 | 104.46006 | 19155 ft | 429 kts | 139° |
| 2026-04-25 07:03 | 0.92297 | 104.47902 | 19612 ft | 432 kts | 139° |
| 2026-04-25 07:04 | 0.89962 | 104.49809 | 20071 ft | 434 kts | 139° |
| 2026-04-25 07:04 | 0.87645 | 104.51696 | 20501 ft | 437 kts | 139° |
| 2026-04-25 07:04 | 0.85278 | 104.53621 | 20946 ft | 440 kts | 139° |
| 2026-04-25 07:04 | 0.82891 | 104.55563 | 21396 ft | 444 kts | 139° |
| 2026-04-25 07:05 | 0.80491 | 104.57514 | 21812 ft | 447 kts | 139° |
| 2026-04-25 07:05 | 0.78075 | 104.59478 | 22226 ft | 450 kts | 139° |
| 2026-04-25 07:05 | 0.75640 | 104.61457 | 22641 ft | 452 kts | 139° |
| 2026-04-25 07:05 | 0.73191 | 104.63448 | 23046 ft | 455 kts | 139° |
| 2026-04-25 07:06 | 0.70726 | 104.65453 | 23438 ft | 458 kts | 139° |
| 2026-04-25 07:06 | 0.68245 | 104.67470 | 23762 ft | 461 kts | 139° |
| 2026-04-25 07:06 | 0.65752 | 104.69498 | 24089 ft | 463 kts | 139° |
| 2026-04-25 07:06 | 0.63281 | 104.71507 | 24422 ft | 465 kts | 140° |
| 2026-04-25 07:07 | 0.60766 | 104.73552 | 24746 ft | 468 kts | 140° |
| 2026-04-25 07:07 | 0.58234 | 104.75611 | 25061 ft | 470 kts | 140° |
| 2026-04-25 07:07 | 0.55688 | 104.77681 | 25368 ft | 473 kts | 140° |
| 2026-04-25 07:07 | 0.53135 | 104.79757 | 25684 ft | 475 kts | 140° |
| 2026-04-25 07:08 | 0.50568 | 104.81844 | 25983 ft | 477 kts | 140° |
| 2026-04-25 07:08 | 0.47988 | 104.83942 | 26287 ft | 479 kts | 140° |
| 2026-04-25 07:08 | 0.43934 | 104.87239 | 26749 ft | 482 kts | 140° |
| 2026-04-25 07:08 | 0.26878 | 105.01327 | 28537 ft | 494 kts | 133° |
| 2026-04-25 07:09 | 0.16064 | 105.17621 | 29825 ft | 500 kts | 118° |
| 2026-04-25 07:09 | 0.03840 | 105.39079 | 31419 ft | 498 kts | 119° |
| 2026-04-25 07:09 | 0.02105 | 105.42066 | 31706 ft | 497 kts | 119° |
| 2026-04-25 07:09 | 0.00370 | 105.45051 | 31975 ft | 496 kts | 119° |
| 2026-04-25 07:10 | -0.01357 | 105.48026 | 32238 ft | 494 kts | 119° |
| 2026-04-25 07:10 | -0.03079 | 105.50997 | 32485 ft | 494 kts | 119° |
| 2026-04-25 07:10 | -0.04798 | 105.53966 | 32729 ft | 494 kts | 119° |
| 2026-04-25 07:11 | -0.16126 | 105.73553 | 32953 ft | 503 kts | 119° |
| 2026-04-25 07:11 | -0.26472 | 105.91442 | 32676 ft | 480 kts | 119° |
| 2026-04-25 07:11 | -0.39481 | 106.13939 | 32808 ft | 473 kts | 119° |
| 2026-04-25 07:11 | -0.52857 | 106.37080 | 33029 ft | 489 kts | 119° |
| 2026-04-25 07:12 | -0.60578 | 106.50384 | 32934 ft | 502 kts | 121° |
| 2026-04-25 07:12 | -0.72717 | 106.64742 | 32833 ft | 492 kts | 131° |
| 2026-04-25 07:12 | -0.82809 | 106.76028 | 32772 ft | 486 kts | 131° |
| 2026-04-25 07:13 | -0.93553 | 106.88184 | 32977 ft | 496 kts | 131° |
| 2026-04-25 07:13 | -0.96812 | 106.91854 | 32911 ft | 500 kts | 131° |
| 2026-04-25 07:13 | -1.48516 | 107.50338 | 32760 ft | 503 kts | 130° |
| 2026-04-25 07:14 | -1.57248 | 107.60614 | 32819 ft | 490 kts | 129° |
| 2026-04-25 07:14 | -1.65698 | 107.70445 | 32777 ft | 487 kts | 130° |
| 2026-04-25 07:14 | -1.81035 | 107.88212 | 32967 ft | 502 kts | 130° |
| 2026-04-25 07:15 | -1.86807 | 107.94910 | 32829 ft | 497 kts | 130° |
| 2026-04-25 07:15 | -1.94265 | 108.03689 | 32761 ft | 488 kts | 129° |
| 2026-04-25 07:15 | -2.02501 | 108.13555 | 32905 ft | 488 kts | 129° |
| 2026-04-25 07:15 | -2.20171 | 108.34573 | 32986 ft | 499 kts | 129° |
| 2026-04-25 07:16 | -2.55896 | 108.77085 | 32768 ft | 490 kts | 129° |
| 2026-04-25 07:16 | -2.72987 | 108.97445 | 32759 ft | 478 kts | 129° |
| 2026-04-25 07:16 | -2.90341 | 109.18124 | 32894 ft | 481 kts | 129° |
| 2026-04-25 07:17 | -3.07534 | 109.38612 | 32957 ft | 492 kts | 129° |
| 2026-04-25 07:17 | -3.25269 | 109.59770 | 32900 ft | 498 kts | 129° |
| 2026-04-25 07:17 | -3.43024 | 109.80958 | 32789 ft | 493 kts | 129° |
| 2026-04-25 07:17 | -3.60482 | 110.01809 | 32746 ft | 483 kts | 129° |
| 2026-04-25 07:18 | -3.95134 | 110.43243 | 32946 ft | 493 kts | 128° |
| 2026-04-25 07:18 | -4.30779 | 110.85917 | 32787 ft | 496 kts | 129° |
| 2026-04-25 07:19 | -4.65375 | 111.27509 | 32832 ft | 486 kts | 127° |
| 2026-04-25 07:19 | -4.82212 | 111.49499 | 32936 ft | 497 kts | 126° |
| 2026-04-25 07:19 | -4.99177 | 111.71362 | 32894 ft | 506 kts | 126° |
| 2026-04-25 07:20 | -5.16435 | 111.93685 | 32786 ft | 503 kts | 126° |
| 2026-04-25 07:20 | -5.33393 | 112.15628 | 32726 ft | 492 kts | 126° |
| 2026-04-25 07:20 | -5.66834 | 112.58975 | 32923 ft | 497 kts | 126° |
| 2026-04-25 07:21 | -6.01077 | 113.03458 | 32781 ft | 500 kts | 126° |
| 2026-04-25 07:21 | -6.17870 | 113.25310 | 32725 ft | 489 kts | 126° |
| 2026-04-25 07:21 | -6.37381 | 113.44041 | 32846 ft | 491 kts | 145° |
| 2026-04-25 07:22 | -6.82619 | 113.76229 | 32920 ft | 506 kts | 142° |
| 2026-04-25 07:22 | -7.05437 | 113.92749 | 32801 ft | 502 kts | 143° |
| 2026-04-25 07:22 | -7.27898 | 114.09027 | 32715 ft | 491 kts | 143° |
| 2026-04-25 07:23 | -7.72079 | 114.41122 | 32923 ft | 496 kts | 143° |
| 2026-04-25 07:23 | -8.17519 | 114.74218 | 32806 ft | 503 kts | 143° |
| 2026-04-25 07:24 | -8.62159 | 115.06824 | 32813 ft | 490 kts | 142° |
| 2026-04-25 07:24 | -9.07410 | 115.46750 | 32937 ft | 505 kts | 136° |
| 2026-04-25 07:25 | -9.27969 | 115.65983 | 32789 ft | 499 kts | 135° |
| 2026-04-25 07:25 | -9.48044 | 115.84933 | 32741 ft | 489 kts | 135° |
| 2026-04-25 07:25 | -9.67997 | 116.03787 | 32858 ft | 492 kts | 135° |
| 2026-04-25 07:25 | -9.87982 | 116.22697 | 32958 ft | 502 kts | 136° |
| 2026-04-25 07:26 | -10.29142 | 116.61749 | 32789 ft | 502 kts | 136° |
| 2026-04-25 07:26 | -10.49289 | 116.80908 | 32770 ft | 491 kts | 136° |
| 2026-04-25 07:26 | -10.69264 | 116.99959 | 32874 ft | 493 kts | 136° |
| 2026-04-25 07:27 | -11.03169 | 117.32349 | 32958 ft | 510 kts | 136° |
| 2026-04-25 07:27 | -11.30490 | 117.58542 | 32808 ft | 504 kts | 136° |
| 2026-04-25 07:27 | -11.50714 | 117.77964 | 32784 ft | 494 kts | 136° |
| 2026-04-25 07:28 | -11.83958 | 118.09998 | 32946 ft | 498 kts | 136° |
| 2026-04-25 07:28 | -12.11228 | 118.36349 | 32952 ft | 509 kts | 136° |
| 2026-04-25 07:28 | -12.24836 | 118.49528 | 32866 ft | 506 kts | 136° |
| 2026-04-25 07:29 | -12.65025 | 118.88565 | 32842 ft | 493 kts | 136° |
| 2026-04-25 07:29 | -12.85090 | 119.08125 | 32955 ft | 500 kts | 136° |
| 2026-04-25 07:29 | -13.05397 | 119.27961 | 32982 ft | 509 kts | 136° |
| 2026-04-25 07:30 | -13.46445 | 119.68208 | 32833 ft | 505 kts | 136° |
| 2026-04-25 07:30 | -13.86839 | 120.08012 | 32943 ft | 506 kts | 136° |
| 2026-04-25 07:31 | -14.28119 | 120.48893 | 32936 ft | 519 kts | 136° |
| 2026-04-25 07:31 | -14.69200 | 120.89801 | 32869 ft | 509 kts | 136° |
| 2026-04-25 07:32 | -15.09778 | 121.30428 | 32994 ft | 512 kts | 136° |
| 2026-04-25 07:32 | -15.51049 | 121.71987 | 32902 ft | 516 kts | 136° |
| 2026-04-25 07:33 | -15.91577 | 122.13033 | 32902 ft | 505 kts | 137° |
| 2026-04-25 07:33 | -16.11820 | 122.33624 | 33024 ft | 514 kts | 137° |
| 2026-04-25 07:33 | -16.32484 | 122.54711 | 33023 ft | 524 kts | 136° |
| 2026-04-25 07:34 | -16.53183 | 122.75899 | 32892 ft | 519 kts | 136° |
| 2026-04-25 07:34 | -16.73603 | 122.96871 | 32841 ft | 509 kts | 137° |
| 2026-04-25 07:34 | -17.13881 | 123.38425 | 33020 ft | 515 kts | 137° |
| 2026-04-25 07:35 | -17.55092 | 123.81228 | 32895 ft | 518 kts | 136° |
| 2026-04-25 07:35 | -17.72502 | 124.05137 | 33861 ft | 529 kts | 124° |
| 2026-04-25 07:35 | -17.89501 | 124.30891 | 34976 ft | 534 kts | 126° |
| 2026-04-25 07:36 | -18.23464 | 124.81857 | 34887 ft | 527 kts | 126° |
| 2026-04-25 07:36 | -18.39040 | 125.05393 | 34816 ft | 512 kts | 126° |
| 2026-04-25 07:36 | -18.49384 | 125.21060 | 34985 ft | 516 kts | 126° |
| 2026-04-25 07:37 | -18.75804 | 125.61282 | 35045 ft | 534 kts | 127° |
| 2026-04-25 07:37 | -18.92630 | 125.87031 | 34923 ft | 528 kts | 127° |
| 2026-04-25 07:37 | -19.04282 | 126.04921 | 34880 ft | 518 kts | 127° |
| 2026-04-25 07:38 | -19.28439 | 126.42182 | 35051 ft | 516 kts | 127° |
| 2026-04-25 07:38 | -19.47545 | 126.71818 | 35029 ft | 531 kts | 127° |
| 2026-04-25 07:39 | -19.80773 | 127.23812 | 34927 ft | 526 kts | 127° |
| 2026-04-25 07:39 | -20.01615 | 127.56654 | 35029 ft | 517 kts | 127° |
| 2026-04-25 07:40 | -20.23680 | 127.91620 | 35124 ft | 528 kts | 127° |
| 2026-04-25 07:40 | -20.49726 | 128.33169 | 35003 ft | 530 kts | 127° |
| 2026-04-25 07:41 | -20.81650 | 128.84504 | 35014 ft | 519 kts | 127° |
| 2026-04-25 07:41 | -20.97693 | 129.10471 | 35121 ft | 528 kts | 127° |
| 2026-04-25 07:41 | -21.14045 | 129.37071 | 35167 ft | 539 kts | 127° |
| 2026-04-25 07:42 | -21.30482 | 129.63944 | 35049 ft | 535 kts | 127° |
| 2026-04-25 07:42 | -21.46644 | 129.90489 | 34966 ft | 525 kts | 127° |
| 2026-04-25 07:42 | -21.78394 | 130.42995 | 35159 ft | 529 kts | 127° |
| 2026-04-25 07:43 | -21.94549 | 130.69914 | 35207 ft | 541 kts | 127° |
| 2026-04-25 07:43 | -22.10855 | 130.97205 | 35115 ft | 540 kts | 127° |
| 2026-04-25 07:43 | -22.42718 | 131.50951 | 35049 ft | 523 kts | 128° |
| 2026-04-25 07:44 | -22.58187 | 131.77192 | 35179 ft | 528 kts | 127° |
| 2026-04-25 07:44 | -22.74170 | 132.04511 | 35238 ft | 538 kts | 127° |
| 2026-04-25 07:44 | -23.06102 | 132.59478 | 35050 ft | 532 kts | 126° |
| 2026-04-25 07:45 | -23.37436 | 133.14020 | 35245 ft | 537 kts | 127° |
| 2026-04-25 07:45 | -23.53384 | 133.41986 | 35274 ft | 549 kts | 127° |
| 2026-04-25 07:45 | -23.69435 | 133.70318 | 35149 ft | 546 kts | 127° |
| 2026-04-25 07:46 | -23.85671 | 133.97074 | 35078 ft | 518 kts | 136° |
| 2026-04-25 07:46 | -24.04835 | 134.21207 | 35207 ft | 526 kts | 136° |
| 2026-04-25 07:46 | -24.23641 | 134.46350 | 35307 ft | 539 kts | 136° |
| 2026-04-25 07:46 | -24.42735 | 134.71731 | 35129 ft | 537 kts | 135° |
| 2026-04-25 07:47 | -24.61489 | 134.96845 | 35037 ft | 526 kts | 135° |
| 2026-04-25 07:47 | -24.79675 | 135.21303 | 35100 ft | 523 kts | 135° |
| 2026-04-25 07:47 | -24.98231 | 135.46396 | 35228 ft | 534 kts | 136° |
| 2026-04-25 07:47 | -25.17185 | 135.72153 | 35262 ft | 543 kts | 135° |
| 2026-04-25 07:48 | -25.36043 | 135.97929 | 35146 ft | 535 kts | 135° |
| 2026-04-25 07:48 | -25.54426 | 136.23210 | 35041 ft | 520 kts | 135° |
| 2026-04-25 07:48 | -25.90639 | 136.73386 | 35262 ft | 531 kts | 135° |
| 2026-04-25 07:49 | -26.09237 | 136.99356 | 35260 ft | 542 kts | 135° |
| 2026-04-25 07:49 | -26.27849 | 137.25541 | 35119 ft | 535 kts | 135° |
| 2026-04-25 07:49 | -26.46059 | 137.51298 | 35048 ft | 523 kts | 135° |
| 2026-04-25 07:49 | -26.63997 | 137.76794 | 35175 ft | 522 kts | 135° |
| 2026-04-25 07:50 | -26.82101 | 138.02672 | 35285 ft | 535 kts | 136° |
| 2026-04-25 07:50 | -27.00570 | 138.29231 | 35259 ft | 542 kts | 136° |
| 2026-04-25 07:50 | -27.18946 | 138.55821 | 35115 ft | 534 kts | 135° |
| 2026-04-25 07:50 | -27.36844 | 138.81892 | 35087 ft | 519 kts | 135° |
| 2026-04-25 07:51 | -27.71957 | 139.33454 | 35284 ft | 525 kts | 135° |
| 2026-04-25 07:51 | -28.07774 | 139.86712 | 35179 ft | 529 kts | 135° |
| 2026-04-25 07:52 | -28.25294 | 140.13007 | 35101 ft | 517 kts | 135° |
| 2026-04-25 07:52 | -28.42495 | 140.38955 | 35194 ft | 514 kts | 135° |
| 2026-04-25 07:52 | -28.59586 | 140.64904 | 35321 ft | 523 kts | 134° |
| 2026-04-25 07:52 | -28.77312 | 140.92020 | 35274 ft | 527 kts | 134° |
| 2026-04-25 07:53 | -28.94671 | 141.18738 | 35168 ft | 518 kts | 134° |
| 2026-04-25 07:53 | -29.11380 | 141.44603 | 35154 ft | 510 kts | 135° |
| 2026-04-25 07:53 | -29.28250 | 141.70855 | 35273 ft | 515 kts | 135° |
| 2026-04-25 07:53 | -29.45352 | 141.97658 | 35355 ft | 526 kts | 134° |
| 2026-04-25 07:54 | -29.62531 | 142.24794 | 35248 ft | 520 kts | 134° |
| 2026-04-25 07:54 | -29.79305 | 142.51449 | 35152 ft | 506 kts | 135° |
| 2026-04-25 07:54 | -29.95807 | 142.77126 | 35156 ft | 489 kts | 139° |
| 2026-04-25 07:54 | -30.13252 | 143.01432 | 35324 ft | 499 kts | 138° |
| 2026-04-25 07:55 | -30.48448 | 143.52108 | 35222 ft | 498 kts | 137° |
| 2026-04-25 07:55 | -30.65546 | 143.76931 | 35153 ft | 485 kts | 137° |
| 2026-04-25 07:55 | -30.82396 | 144.01524 | 35280 ft | 487 kts | 137° |
| 2026-04-25 07:56 | -30.99456 | 144.26546 | 35371 ft | 501 kts | 136° |
| 2026-04-25 07:56 | -31.16701 | 144.52047 | 35337 ft | 506 kts | 135° |
| 2026-04-25 07:56 | -31.33918 | 144.77681 | 35210 ft | 496 kts | 134° |
| 2026-04-25 07:56 | -31.50657 | 145.02771 | 35186 ft | 482 kts | 133° |
| 2026-04-25 07:57 | -31.67160 | 145.27655 | 35289 ft | 485 kts | 132° |
| 2026-04-25 07:57 | -31.83838 | 145.52973 | 35394 ft | 496 kts | 131° |
| 2026-04-25 07:57 | -32.17435 | 146.04509 | 35220 ft | 490 kts | 131° |
| 2026-04-25 07:58 | -32.49915 | 146.54971 | 35335 ft | 483 kts | 130° |
| 2026-04-25 07:58 | -32.72668 | 146.90746 | 35300 ft | 493 kts | 130° |
| 2026-04-25 07:59 | -32.88880 | 147.16444 | 35266 ft | 478 kts | 130° |
| 2026-04-25 07:59 | -33.04917 | 147.42029 | 35342 ft | 488 kts | 129° |
| 2026-04-25 08:00 | -33.16016 | 147.59849 | 35312 ft | 488 kts | 129° |
| 2026-04-25 08:00 | -33.20011 | 147.66287 | 35300 ft | 480 kts | 129° |
| 2026-04-25 08:01 | -33.27933 | 147.79074 | 35309 ft | 481 kts | 129° |
| 2026-04-25 08:02 | -33.31911 | 147.85515 | 35308 ft | 482 kts | 129° |
| 2026-04-25 08:02 | -33.35866 | 147.91919 | 35309 ft | 482 kts | 130° |
| 2026-04-25 08:03 | -33.40248 | 147.97940 | 35314 ft | 479 kts | 136° |
| 2026-04-25 08:03 | -33.44805 | 148.03758 | 35309 ft | 479 kts | 136° |
| 2026-04-25 08:04 | -33.49353 | 148.09589 | 35315 ft | 479 kts | 135° |
| 2026-04-25 08:04 | -33.53879 | 148.15453 | 35324 ft | 479 kts | 135° |
| 2026-04-25 08:05 | -33.58361 | 148.21290 | 35318 ft | 479 kts | 135° |
| 2026-04-25 08:05 | -33.62863 | 148.27165 | 35315 ft | 478 kts | 135° |
| 2026-04-25 08:06 | -33.67361 | 148.33043 | 35320 ft | 478 kts | 135° |
| 2026-04-25 08:06 | -33.71854 | 148.38923 | 35324 ft | 477 kts | 135° |
| 2026-04-25 08:07 | -33.76340 | 148.44802 | 35318 ft | 477 kts | 135° |
| 2026-04-25 08:07 | -33.80823 | 148.50688 | 35327 ft | 477 kts | 135° |
| 2026-04-25 08:08 | -33.85268 | 148.56535 | 35326 ft | 477 kts | 135° |
| 2026-04-25 08:08 | -33.89738 | 148.62423 | 35333 ft | 477 kts | 135° |
| 2026-04-25 08:09 | -33.94208 | 148.68320 | 35332 ft | 477 kts | 135° |
| 2026-04-25 08:09 | -33.98673 | 148.74223 | 35333 ft | 477 kts | 134° |
| 2026-04-25 08:10 | -34.03136 | 148.80131 | 35337 ft | 477 kts | 134° |
| 2026-04-25 08:10 | -34.07594 | 148.86044 | 35339 ft | 477 kts | 134° |
| 2026-04-25 08:11 | -34.12025 | 148.91930 | 35342 ft | 477 kts | 134° |
| 2026-04-25 08:11 | -34.16480 | 148.97858 | 35341 ft | 477 kts | 134° |
| 2026-04-25 08:12 | -34.20931 | 149.03793 | 35344 ft | 477 kts | 134° |
| 2026-04-25 08:12 | -34.25382 | 149.09736 | 35359 ft | 476 kts | 134° |
| 2026-04-25 08:13 | -34.27597 | 149.12698 | 35242 ft | 474 kts | 134° |
| 2026-04-25 08:13 | -34.29807 | 149.15656 | 34930 ft | 474 kts | 134° |
| 2026-04-25 08:13 | -34.32023 | 149.18623 | 34559 ft | 477 kts | 134° |
| 2026-04-25 08:14 | -34.36449 | 149.24559 | 33844 ft | 478 kts | 134° |
| 2026-04-25 08:14 | -34.38678 | 149.27552 | 33516 ft | 479 kts | 133° |
| 2026-04-25 08:14 | -34.40819 | 149.30640 | 32813 ft | 483 kts | 126° |
| 2026-04-25 08:14 | -34.42497 | 149.34185 | 31968 ft | 487 kts | 116° |
| 2026-04-25 08:15 | -34.43659 | 149.38031 | 31237 ft | 486 kts | 107° |
| 2026-04-25 08:15 | -34.44291 | 149.42032 | 30654 ft | 482 kts | 99° |
| 2026-04-25 08:15 | -34.44731 | 149.46040 | 30001 ft | 478 kts | 99° |
| 2026-04-25 08:15 | -34.45153 | 149.50010 | 29357 ft | 473 kts | 99° |
| 2026-04-25 08:16 | -34.45580 | 149.53912 | 28786 ft | 467 kts | 99° |
| 2026-04-25 08:16 | -34.46023 | 149.57813 | 28183 ft | 462 kts | 99° |
| 2026-04-25 08:16 | -34.46472 | 149.61654 | 27598 ft | 457 kts | 99° |
| 2026-04-25 08:16 | -34.46922 | 149.65446 | 27032 ft | 453 kts | 99° |
| 2026-04-25 08:17 | -34.47364 | 149.69157 | 26478 ft | 449 kts | 99° |
| 2026-04-25 08:17 | -34.47807 | 149.72883 | 25924 ft | 445 kts | 99° |
| 2026-04-25 08:17 | -34.48244 | 149.76582 | 25374 ft | 442 kts | 99° |
| 2026-04-25 08:17 | -34.48676 | 149.80250 | 24827 ft | 438 kts | 98° |
| 2026-04-25 08:18 | -34.49105 | 149.83897 | 24280 ft | 436 kts | 98° |
| 2026-04-25 08:18 | -34.49528 | 149.87519 | 23689 ft | 432 kts | 98° |
| 2026-04-25 08:18 | -34.49676 | 149.91124 | 23071 ft | 428 kts | 86° |
| 2026-04-25 08:18 | -34.49197 | 149.94664 | 22536 ft | 424 kts | 76° |
| 2026-04-25 08:19 | -34.48227 | 149.98019 | 21983 ft | 420 kts | 65° |
| 2026-04-25 08:19 | -34.46868 | 150.01124 | 21476 ft | 415 kts | 62° |
| 2026-04-25 08:19 | -34.45476 | 150.04174 | 20950 ft | 412 kts | 62° |
| 2026-04-25 08:19 | -34.44096 | 150.07197 | 20445 ft | 409 kts | 62° |
| 2026-04-25 08:20 | -34.42733 | 150.10207 | 19925 ft | 406 kts | 62° |
| 2026-04-25 08:20 | -34.41407 | 150.13160 | 19432 ft | 404 kts | 62° |
| 2026-04-25 08:20 | -34.40075 | 150.16141 | 18929 ft | 401 kts | 62° |
| 2026-04-25 08:20 | -34.38754 | 150.19109 | 18387 ft | 400 kts | 62° |
| 2026-04-25 08:21 | -34.37440 | 150.22063 | 17826 ft | 397 kts | 62° |
| 2026-04-25 08:21 | -34.36138 | 150.24988 | 17313 ft | 394 kts | 62° |
| 2026-04-25 08:21 | -34.34842 | 150.27899 | 16790 ft | 391 kts | 62° |
| 2026-04-25 08:21 | -34.33559 | 150.30777 | 16296 ft | 388 kts | 62° |
| 2026-04-25 08:22 | -34.32284 | 150.33635 | 15803 ft | 385 kts | 62° |
| 2026-04-25 08:22 | -34.31017 | 150.36475 | 15322 ft | 382 kts | 62° |
| 2026-04-25 08:22 | -34.29757 | 150.39295 | 14831 ft | 380 kts | 62° |
| 2026-04-25 08:22 | -34.28519 | 150.42062 | 14354 ft | 378 kts | 62° |
| 2026-04-25 08:23 | -34.27271 | 150.44848 | 13835 ft | 376 kts | 62° |
| 2026-04-25 08:23 | -34.26028 | 150.47625 | 13316 ft | 374 kts | 62° |
| 2026-04-25 08:23 | -34.24795 | 150.50378 | 12822 ft | 371 kts | 62° |
| 2026-04-25 08:23 | -34.23569 | 150.53114 | 12338 ft | 369 kts | 62° |
| 2026-04-25 08:24 | -34.22351 | 150.55833 | 11861 ft | 366 kts | 62° |
| 2026-04-25 08:24 | -34.21143 | 150.58528 | 11387 ft | 364 kts | 62° |
| 2026-04-25 08:24 | -34.19942 | 150.61202 | 10924 ft | 361 kts | 62° |
| 2026-04-25 08:24 | -34.18758 | 150.63836 | 10732 ft | 351 kts | 62° |
| 2026-04-25 08:25 | -34.17626 | 150.66351 | 10569 ft | 340 kts | 62° |
| 2026-04-25 08:25 | -34.16515 | 150.68820 | 10428 ft | 330 kts | 62° |
| 2026-04-25 08:25 | -34.15435 | 150.71219 | 10272 ft | 320 kts | 62° |
| 2026-04-25 08:25 | -34.14388 | 150.73546 | 10127 ft | 310 kts | 62° |
| 2026-04-25 08:26 | -34.13375 | 150.75796 | 9997 ft | 301 kts | 62° |
| 2026-04-25 08:26 | -34.12382 | 150.78000 | 9681 ft | 298 kts | 62° |
| 2026-04-25 08:26 | -34.11399 | 150.80178 | 9355 ft | 292 kts | 62° |
| 2026-04-25 08:26 | -34.10430 | 150.82325 | 9023 ft | 290 kts | 62° |
| 2026-04-25 08:27 | -34.09472 | 150.84450 | 8768 ft | 286 kts | 62° |
| 2026-04-25 08:27 | -34.08533 | 150.86536 | 8538 ft | 281 kts | 62° |
| 2026-04-25 08:27 | -34.07617 | 150.88572 | 8314 ft | 278 kts | 62° |
| 2026-04-25 08:27 | -34.06698 | 150.90615 | 8084 ft | 277 kts | 62° |
| 2026-04-25 08:28 | -34.05781 | 150.92650 | 7856 ft | 276 kts | 62° |
| 2026-04-25 08:28 | -34.04864 | 150.94683 | 7631 ft | 276 kts | 62° |
| 2026-04-25 08:28 | -34.03946 | 150.96717 | 7393 ft | 276 kts | 62° |
| 2026-04-25 08:28 | -34.03204 | 150.98816 | 7142 ft | 271 kts | 81° |
| 2026-04-25 08:29 | -34.03327 | 151.01064 | 6947 ft | 273 kts | 109° |
| 2026-04-25 08:29 | -34.03867 | 151.02434 | 6799 ft | 275 kts | 124° |
| 2026-04-25 08:29 | -34.05582 | 151.04738 | 6467 ft | 278 kts | 134° |
| 2026-04-25 08:29 | -34.06928 | 151.06416 | 6249 ft | 279 kts | 134° |
| 2026-04-25 08:30 | -34.07884 | 151.07423 | 6080 ft | 274 kts | 149° |
| 2026-04-25 08:30 | -34.10233 | 151.08345 | 6016 ft | 270 kts | 168° |
| 2026-04-25 08:30 | -34.12086 | 151.08803 | 6012 ft | 274 kts | 168° |
| 2026-04-25 08:30 | -34.13959 | 151.09280 | 6003 ft | 275 kts | 168° |
| 2026-04-25 08:31 | -34.15805 | 151.09754 | 5987 ft | 266 kts | 168° |
| 2026-04-25 08:31 | -34.17575 | 151.10211 | 5975 ft | 254 kts | 168° |
| 2026-04-25 08:31 | -34.19239 | 151.10820 | 5947 ft | 252 kts | 151° |
| 2026-04-25 08:31 | -34.20209 | 151.11586 | 5821 ft | 254 kts | 139° |
| 2026-04-25 08:32 | -34.21242 | 151.13319 | 5403 ft | 258 kts | 109° |
| 2026-04-25 08:32 | -34.21345 | 151.16172 | 4900 ft | 258 kts | 77° |
| 2026-04-25 08:32 | -34.21068 | 151.17569 | 4661 ft | 258 kts | 74° |
| 2026-04-25 08:32 | -34.20599 | 151.19622 | 4399 ft | 248 kts | 73° |
| 2026-04-25 08:33 | -34.20141 | 151.21592 | 4071 ft | 240 kts | 73° |
| 2026-04-25 08:33 | -34.19701 | 151.23496 | 3817 ft | 232 kts | 73° |
| 2026-04-25 08:33 | -34.19053 | 151.25928 | 3638 ft | 225 kts | 59° |
| 2026-04-25 08:33 | -34.17965 | 151.27269 | 3663 ft | 230 kts | 26° |
| 2026-04-25 08:34 | -34.16953 | 151.27672 | 3674 ft | 234 kts | 5° |
| 2026-04-25 08:34 | -34.15287 | 151.27604 | 3471 ft | 250 kts | 354° |
| 2026-04-25 08:34 | -34.13561 | 151.27341 | 3200 ft | 245 kts | 349° |
| 2026-04-25 08:34 | -34.11984 | 151.26677 | 3032 ft | 237 kts | 338° |
| 2026-04-25 08:35 | -34.10485 | 151.25863 | 3007 ft | 238 kts | 335° |
| 2026-04-25 08:35 | -34.09031 | 151.24997 | 2964 ft | 227 kts | 335° |
| 2026-04-25 08:35 | -34.07669 | 151.24033 | 2508 ft | 229 kts | 328° |
| 2026-04-25 08:35 | -34.06393 | 151.22920 | 2255 ft | 221 kts | 325° |
| 2026-04-25 08:36 | -34.05190 | 151.21846 | 1813 ft | 207 kts | 331° |
| 2026-04-25 08:36 | -34.03921 | 151.21213 | 1195 ft | 198 kts | 348° |
| 2026-04-25 08:36 | -34.02661 | 151.20805 | 1002 ft | 175 kts | 347° |
| 2026-04-25 08:36 | -34.01499 | 151.20353 | 998 ft | 185 kts | 343° |
| 2026-04-25 08:37 | -34.00295 | 151.19786 | 1417 ft | 186 kts | 341° |
| 2026-04-25 08:37 | -33.99083 | 151.19189 | 1887 ft | 192 kts | 342° |
| 2026-04-25 08:37 | -33.97777 | 151.18610 | 2180 ft | 208 kts | 343° |
| 2026-04-25 08:37 | -33.96449 | 151.17815 | 2608 ft | 221 kts | 321° |
| 2026-04-25 08:38 | -33.95433 | 151.16363 | 3124 ft | 230 kts | 309° |
| 2026-04-25 08:38 | -33.94403 | 151.14842 | 2996 ft | 233 kts | 312° |
| 2026-04-25 08:38 | -33.93349 | 151.13356 | 3008 ft | 234 kts | 313° |
| 2026-04-25 08:38 | -33.92306 | 151.11851 | 2996 ft | 233 kts | 305° |
| 2026-04-25 08:39 | -33.91783 | 151.10009 | 3005 ft | 239 kts | 272° |
| 2026-04-25 08:39 | -33.92138 | 151.08078 | 3012 ft | 244 kts | 243° |
| 2026-04-25 08:39 | -33.93078 | 151.06355 | 3012 ft | 248 kts | 234° |
| 2026-04-25 08:39 | -33.94115 | 151.04710 | 2997 ft | 245 kts | 233° |
| 2026-04-25 08:40 | -33.95155 | 151.03096 | 2992 ft | 242 kts | 233° |
| 2026-04-25 08:40 | -33.96186 | 151.01502 | 3003 ft | 242 kts | 233° |
| 2026-04-25 08:40 | -33.97225 | 150.99905 | 2995 ft | 243 kts | 233° |
| 2026-04-25 08:40 | -33.98268 | 150.98304 | 3006 ft | 243 kts | 233° |
| 2026-04-25 08:41 | -33.99317 | 150.96697 | 2998 ft | 244 kts | 233° |
| 2026-04-25 08:41 | -34.00370 | 150.95086 | 2997 ft | 245 kts | 232° |
| 2026-04-25 08:41 | -34.01582 | 150.93730 | 2985 ft | 242 kts | 207° |
| 2026-04-25 08:41 | -34.03185 | 150.93276 | 2983 ft | 238 kts | 174° |
| 2026-04-25 08:42 | -34.04778 | 150.93799 | 3015 ft | 243 kts | 156° |
| 2026-04-25 08:42 | -34.06344 | 150.94646 | 3006 ft | 249 kts | 153° |
| 2026-04-25 08:42 | -34.07908 | 150.95545 | 3003 ft | 248 kts | 153° |
| 2026-04-25 08:42 | -34.09459 | 150.96447 | 3005 ft | 248 kts | 153° |
| 2026-04-25 08:43 | -34.11012 | 150.97353 | 2996 ft | 249 kts | 153° |
| 2026-04-25 08:43 | -34.12567 | 150.98266 | 2980 ft | 247 kts | 153° |
| 2026-04-25 08:43 | -34.14105 | 150.99172 | 2994 ft | 246 kts | 153° |
| 2026-04-25 08:43 | -34.15652 | 151.00071 | 2989 ft | 246 kts | 153° |
| 2026-04-25 08:44 | -34.17202 | 151.00971 | 3000 ft | 249 kts | 153° |
| 2026-04-25 08:44 | -34.18761 | 151.01879 | 2987 ft | 247 kts | 152° |
| 2026-04-25 08:44 | -34.20092 | 151.03118 | 2984 ft | 241 kts | 123° |
| 2026-04-25 08:44 | -34.20686 | 151.04897 | 2980 ft | 227 kts | 91° |
| 2026-04-25 08:45 | -34.20533 | 151.06725 | 3004 ft | 218 kts | 76° |
| 2026-04-25 08:45 | -34.20174 | 151.08500 | 2990 ft | 216 kts | 73° |
| 2026-04-25 08:45 | -34.19801 | 151.10256 | 2998 ft | 216 kts | 74° |
| 2026-04-25 08:45 | -34.19436 | 151.12007 | 3007 ft | 216 kts | 73° |
| 2026-04-25 08:46 | -34.19055 | 151.13767 | 3001 ft | 217 kts | 73° |
| 2026-04-25 08:46 | -34.18668 | 151.15532 | 3003 ft | 218 kts | 73° |
| 2026-04-25 08:46 | -34.18249 | 151.17269 | 2969 ft | 213 kts | 62° |
| 2026-04-25 08:46 | -34.17306 | 151.18574 | 2998 ft | 209 kts | 27° |
| 2026-04-25 08:47 | -34.15989 | 151.19170 | 3009 ft | 203 kts | 15° |
| 2026-04-25 08:47 | -34.14636 | 151.19572 | 3036 ft | 197 kts | 14° |
| 2026-04-25 08:47 | -34.13295 | 151.19942 | 3011 ft | 198 kts | 13° |
| 2026-04-25 08:47 | -34.11938 | 151.20314 | 3031 ft | 199 kts | 13° |
| 2026-04-25 08:48 | -34.10622 | 151.20673 | 3000 ft | 188 kts | 13° |
| 2026-04-25 08:48 | -34.09383 | 151.20995 | 2908 ft | 178 kts | 8° |
| 2026-04-25 08:48 | -34.08146 | 151.20930 | 2514 ft | 181 kts | 354° |
| 2026-04-25 08:48 | -34.06905 | 151.20704 | 2166 ft | 179 kts | 353° |
| 2026-04-25 08:49 | -34.05723 | 151.20431 | 1910 ft | 166 kts | 351° |
| 2026-04-25 08:49 | -34.04612 | 151.20166 | 1591 ft | 157 kts | 352° |
| 2026-04-25 08:49 | -34.03568 | 151.19897 | 1228 ft | 151 kts | 351° |
| 2026-04-25 08:49 | -34.02601 | 151.19614 | 994 ft | 139 kts | 349° |
| 2026-04-25 08:50 | -34.01627 | 151.19357 | 1067 ft | 150 kts | 354° |
| 2026-04-25 08:50 | -34.00651 | 151.19126 | 964 ft | 136 kts | 352° |
| 2026-04-25 08:50 | -33.99750 | 151.18900 | 596 ft | 134 kts | 351° |
| 2026-04-25 08:50 | -33.98800 | 151.18657 | 607 ft | 141 kts | 353° |
| 2026-04-25 08:51 | -33.97829 | 151.18416 | 412 ft | 143 kts | 349° |
| 2026-04-25 08:51 | -33.96897 | 151.18170 | 157 ft | 133 kts | 349° |
| 2026-04-25 08:51 | -33.96015 | 151.17956 | 33 ft | 123 kts | 348° |
| 2026-04-25 08:51 | -33.95246 | 151.17761 | 34 ft | 102 kts | 347° |
| 2026-04-25 08:52 | -33.94629 | 151.17596 | 35 ft | 83 kts | 346° |
| 2026-04-25 08:52 | -33.94312 | 151.17511 | 35 ft | 9 kts | 343° |
| 2026-04-25 08:52 | -33.94287 | 151.17474 | 35 ft | 4 kts | 273° |
| 2026-04-25 08:52 | -33.94292 | 151.17434 | 35 ft | 5 kts | 260° |
| 2026-04-25 08:53 | -33.94298 | 151.17396 | 35 ft | 0 kts | 255° |
| 2026-04-25 08:53 | -33.94300 | 151.17390 | 35 ft | 1 kts | 255° |
| 2026-04-25 08:53 | -33.94305 | 151.17358 | 35 ft | 8 kts | 266° |
| 2026-04-25 08:53 | -33.94271 | 151.17305 | 34 ft | 9 kts | 338° |
| 2026-04-25 08:54 | -33.94209 | 151.17285 | 33 ft | 10 kts | 348° |
| 2026-04-25 08:54 | -33.94141 | 151.17267 | 33 ft | 10 kts | 347° |
| 2026-04-25 08:54 | -33.94074 | 151.17248 | 34 ft | 10 kts | 347° |
| 2026-04-25 08:54 | -33.94005 | 151.17231 | 34 ft | 10 kts | 341° |
| 2026-04-25 08:55 | -33.93985 | 151.17192 | 34 ft | 2 kts | 273° |
| 2026-04-25 08:55 | -33.93989 | 151.17149 | 34 ft | 12 kts | 262° |
| 2026-04-25 08:55 | -33.94012 | 151.17042 | 34 ft | 13 kts | 252° |
| 2026-04-25 08:55 | -33.94033 | 151.16966 | 35 ft | 8 kts | 252° |
| 2026-04-25 08:56 | -33.94048 | 151.16904 | 35 ft | 8 kts | 254° |
| 2026-04-25 08:56 | -33.94056 | 151.16872 | 35 ft | 0 kts | 254° |
| 2026-04-25 08:56 | -33.94056 | 151.16868 | 35 ft | 1 kts | 254° |
| 2026-04-25 08:56 | -33.94060 | 151.16853 | 35 ft | 4 kts | 253° |
| 2026-04-25 08:57 | -33.94048 | 151.16820 | 35 ft | 6 kts | 316° |
| 2026-04-25 08:57 | -33.94009 | 151.16796 | 35 ft | 6 kts | 336° |
| 2026-04-25 08:57 | -33.93968 | 151.16776 | 35 ft | 6 kts | 344° |
| 2026-04-25 08:57 | -33.93935 | 151.16753 | 35 ft | 5 kts | 294° |
| 2026-04-25 08:58 | -33.93933 | 151.16706 | 35 ft | 6 kts | 266° |
| 2026-04-25 08:58 | -33.93933 | 151.16699 | 35 ft | 0 kts | 263° |